sensor_id;sensor_type;location;lat;lon;timestamp;pressure;altitude;pressure_sealevel;temperature;humidity
77869;BME280;67231;59.144;37.934;2023-04-16T00:00:15;101991.22;;;1.84;41.87
77869;BME280;67231;59.144;37.934;2023-04-16T00:02:41;101987.78;;;1.81;41.44
77869;BME280;67231;59.144;37.934;2023-04-16T00:05:08;101993.91;;;1.80;41.07
77869;BME280;67231;59.144;37.934;2023-04-16T00:07:34;101987.06;;;1.76;41.20
77869;BME280;67231;59.144;37.934;2023-04-16T00:10:01;101995.03;;;1.72;41.75
77869;BME280;67231;59.144;37.934;2023-04-16T00:12:29;101995.13;;;1.70;42.06
77869;BME280;67231;59.144;37.934;2023-04-16T00:14:56;101989.06;;;1.68;41.63
77869;BME280;67231;59.144;37.934;2023-04-16T00:17:22;101990.06;;;1.64;42.02
77869;BME280;67231;59.144;37.934;2023-04-16T00:19:49;101998.84;;;1.61;41.42
77869;BME280;67231;59.144;37.934;2023-04-16T00:22:15;101997.28;;;1.56;41.69
77869;BME280;67231;59.144;37.934;2023-04-16T00:24:41;102002.66;;;1.51;42.12
77869;BME280;67231;59.144;37.934;2023-04-16T00:27:08;101994.06;;;1.46;41.94
77869;BME280;67231;59.144;37.934;2023-04-16T00:29:34;101994.31;;;1.38;42.75
77869;BME280;67231;59.144;37.934;2023-04-16T00:32:01;101998.16;;;1.25;43.21
77869;BME280;67231;59.144;37.934;2023-04-16T00:34:28;102000.16;;;1.15;43.92
77869;BME280;67231;59.144;37.934;2023-04-16T00:36:54;101995.09;;;1.09;44.40
77869;BME280;67231;59.144;37.934;2023-04-16T00:39:21;101999.59;;;1.04;44.27
77869;BME280;67231;59.144;37.934;2023-04-16T00:41:47;101998.84;;;1.00;44.03
77869;BME280;67231;59.144;37.934;2023-04-16T00:44:14;101993.69;;;0.97;44.38
77869;BME280;67231;59.144;37.934;2023-04-16T00:46:41;101993.78;;;0.94;44.71
77869;BME280;67231;59.144;37.934;2023-04-16T00:49:08;101994.84;;;0.87;44.64
77869;BME280;67231;59.144;37.934;2023-04-16T00:51:35;101979.38;;;0.79;44.69
77869;BME280;67231;59.144;37.934;2023-04-16T00:54:02;101992.53;;;0.75;45.74
77869;BME280;67231;59.144;37.934;2023-04-16T00:56:29;101990.13;;;0.67;45.91
77869;BME280;67231;59.144;37.934;2023-04-16T00:58:56;101991.16;;;0.61;46.27
77869;BME280;67231;59.144;37.934;2023-04-16T01:01:22;101986.91;;;0.57;46.32
77869;BME280;67231;59.144;37.934;2023-04-16T01:03:49;101992.31;;;0.49;46.47
77869;BME280;67231;59.144;37.934;2023-04-16T01:06:16;101984.53;;;0.46;46.03
77869;BME280;67231;59.144;37.934;2023-04-16T01:08:44;101991.53;;;0.46;46.16
77869;BME280;67231;59.144;37.934;2023-04-16T01:11:13;101992.41;;;0.45;45.88
77869;BME280;67231;59.144;37.934;2023-04-16T01:13:39;101992.41;;;0.45;45.59
77869;BME280;67231;59.144;37.934;2023-04-16T01:16:07;101996.78;;;0.44;45.45
77869;BME280;67231;59.144;37.934;2023-04-16T01:18:34;101989.00;;;0.43;45.79
77869;BME280;67231;59.144;37.934;2023-04-16T01:21:02;101992.50;;;0.42;45.63
77869;BME280;67231;59.144;37.934;2023-04-16T01:23:29;101987.28;;;0.42;45.63
77869;BME280;67231;59.144;37.934;2023-04-16T01:25:56;101983.00;;;0.39;45.38
77869;BME280;67231;59.144;37.934;2023-04-16T01:28:22;101990.00;;;0.39;45.75
77869;BME280;67231;59.144;37.934;2023-04-16T01:30:49;101990.06;;;0.35;45.31
77869;BME280;67231;59.144;37.934;2023-04-16T01:33:34;101988.41;;;0.31;45.36
77869;BME280;67231;59.144;37.934;2023-04-16T01:36:00;101990.22;;;0.29;45.82
77869;BME280;67231;59.144;37.934;2023-04-16T01:38:27;101995.53;;;0.25;45.94
77869;BME280;67231;59.144;37.934;2023-04-16T01:40:57;101992.13;;;0.23;45.38
77869;BME280;67231;59.144;37.934;2023-04-16T01:43:24;101992.19;;;0.20;45.62
77869;BME280;67231;59.144;37.934;2023-04-16T01:45:55;101996.59;;;0.16;45.88
77869;BME280;67231;59.144;37.934;2023-04-16T01:48:24;101991.47;;;0.13;45.82
77869;BME280;67231;59.144;37.934;2023-04-16T01:50:50;101991.53;;;0.10;45.87
77869;BME280;67231;59.144;37.934;2023-04-16T01:53:17;101992.47;;;0.07;45.65
77869;BME280;67231;59.144;37.934;2023-04-16T01:55:43;101986.47;;;0.04;45.81
77869;BME280;67231;59.144;37.934;2023-04-16T01:58:11;101996.16;;;-0.02;45.91
77869;BME280;67231;59.144;37.934;2023-04-16T02:00:40;101995.34;;;-0.05;46.19
77869;BME280;67231;59.144;37.934;2023-04-16T02:03:06;101994.53;;;-0.07;46.12
77869;BME280;67231;59.144;37.934;2023-04-16T02:05:33;101992.81;;;-0.08;46.24
77869;BME280;67231;59.144;37.934;2023-04-16T02:07:59;101992.88;;;-0.11;46.53
77869;BME280;67231;59.144;37.934;2023-04-16T02:10:26;101994.72;;;-0.16;47.00
77869;BME280;67231;59.144;37.934;2023-04-16T02:12:52;102007.00;;;-0.20;47.21
77869;BME280;67231;59.144;37.934;2023-04-16T02:15:19;101997.44;;;-0.21;47.08
77869;BME280;67231;59.144;37.934;2023-04-16T02:17:46;102010.47;;;-0.21;47.35
77869;BME280;67231;59.144;37.934;2023-04-16T02:20:14;101991.41;;;-0.23;47.35
77869;BME280;67231;59.144;37.934;2023-04-16T02:22:48;101995.81;;;-0.25;47.46
77869;BME280;67231;59.144;37.934;2023-04-16T02:25:17;101995.91;;;-0.30;47.84
77869;BME280;67231;59.144;37.934;2023-04-16T02:27:44;101997.66;;;-0.30;48.22
77869;BME280;67231;59.144;37.934;2023-04-16T02:30:22;101990.59;;;-0.25;48.52
77869;BME280;67231;59.144;37.934;2023-04-16T02:32:50;101993.94;;;-0.20;47.95
77869;BME280;67231;59.144;37.934;2023-04-16T02:35:17;101989.44;;;-0.13;47.91
77869;BME280;67231;59.144;37.934;2023-04-16T02:37:44;101990.97;;;-0.03;48.15
77869;BME280;67231;59.144;37.934;2023-04-16T02:40:11;101996.03;;;0.03;48.15
77869;BME280;67231;59.144;37.934;2023-04-16T02:42:37;101994.28;;;0.04;47.97
77869;BME280;67231;59.144;37.934;2023-04-16T02:45:05;101989.84;;;0.07;48.13
77869;BME280;67231;59.144;37.934;2023-04-16T02:47:32;101992.31;;;0.13;48.22
77869;BME280;67231;59.144;37.934;2023-04-16T02:49:58;101993.03;;;0.20;48.29
77869;BME280;67231;59.144;37.934;2023-04-16T02:52:25;101985.03;;;0.28;48.46
77869;BME280;67231;59.144;37.934;2023-04-16T02:54:51;101994.44;;;0.33;48.17
77869;BME280;67231;59.144;37.934;2023-04-16T02:57:18;101986.53;;;0.36;48.78
77869;BME280;67231;59.144;37.934;2023-04-16T02:59:44;101989.88;;;0.42;48.75
77869;BME280;67231;59.144;37.934;2023-04-16T03:02:11;101994.09;;;0.47;48.54
77869;BME280;67231;59.144;37.934;2023-04-16T03:04:39;101991.38;;;0.52;48.58
77869;BME280;67231;59.144;37.934;2023-04-16T03:07:05;101989.47;;;0.59;48.33
77869;BME280;67231;59.144;37.934;2023-04-16T03:09:32;101992.81;;;0.64;48.82
77869;BME280;67231;59.144;37.934;2023-04-16T03:11:58;101990.06;;;0.70;48.55
77869;BME280;67231;59.144;37.934;2023-04-16T03:14:24;101991.59;;;0.79;48.80
77869;BME280;67231;59.144;37.934;2023-04-16T03:16:51;101991.44;;;0.83;48.91
77869;BME280;67231;59.144;37.934;2023-04-16T03:19:17;101986.00;;;0.91;48.58
77869;BME280;67231;59.144;37.934;2023-04-16T03:21:44;101992.69;;;1.03;48.55
77869;BME280;67231;59.144;37.934;2023-04-16T03:24:10;101980.28;;;1.09;48.64
77869;BME280;67231;59.144;37.934;2023-04-16T03:26:37;101988.78;;;1.18;48.37
77869;BME280;67231;59.144;37.934;2023-04-16T03:29:03;101991.78;;;1.35;47.93
77869;BME280;67231;59.144;37.934;2023-04-16T03:31:31;101988.06;;;1.42;47.59
77869;BME280;67231;59.144;37.934;2023-04-16T03:33:58;101990.38;;;1.53;47.45
77869;BME280;67231;59.144;37.934;2023-04-16T03:36:25;101988.13;;;1.71;47.80
77869;BME280;67231;59.144;37.934;2023-04-16T03:38:52;101997.34;;;1.82;47.57
77869;BME280;67231;59.144;37.934;2023-04-16T03:41:18;101985.66;;;1.94;47.01
77869;BME280;67231;59.144;37.934;2023-04-16T03:43:45;101993.16;;;2.05;47.13
77869;BME280;67231;59.144;37.934;2023-04-16T03:46:11;101982.44;;;2.13;46.80
77869;BME280;67231;59.144;37.934;2023-04-16T03:48:38;101981.34;;;2.20;47.53
77869;BME280;67231;59.144;37.934;2023-04-16T03:51:05;101979.22;;;2.31;46.87
77869;BME280;67231;59.144;37.934;2023-04-16T03:53:32;101982.34;;;2.43;47.47
77869;BME280;67231;59.144;37.934;2023-04-16T03:55:59;101985.47;;;2.54;46.72
77869;BME280;67231;59.144;37.934;2023-04-16T03:58:27;101986.75;;;2.67;47.07
77869;BME280;67231;59.144;37.934;2023-04-16T04:00:53;101984.63;;;2.79;46.74
77869;BME280;67231;59.144;37.934;2023-04-16T04:03:20;101977.97;;;2.94;46.56
77869;BME280;67231;59.144;37.934;2023-04-16T04:05:49;101978.44;;;3.05;45.88
77869;BME280;67231;59.144;37.934;2023-04-16T04:08:22;101981.53;;;3.16;46.54
77869;BME280;67231;59.144;37.934;2023-04-16T04:10:48;101971.16;;;3.37;46.09
77869;BME280;67231;59.144;37.934;2023-04-16T04:13:16;101973.91;;;3.57;45.44
77869;BME280;67231;59.144;37.934;2023-04-16T04:15:43;101967.06;;;3.75;45.60
77869;BME280;67231;59.144;37.934;2023-04-16T04:18:09;101973.13;;;3.99;45.04
77869;BME280;67231;59.144;37.934;2023-04-16T04:20:39;101965.13;;;4.25;44.41
77869;BME280;67231;59.144;37.934;2023-04-16T04:23:10;101968.25;;;4.55;43.91
77869;BME280;67231;59.144;37.934;2023-04-16T04:25:36;101969.59;;;4.84;43.52
77869;BME280;67231;59.144;37.934;2023-04-16T04:28:03;101964.13;;;5.09;43.46
77869;BME280;67231;59.144;37.934;2023-04-16T04:30:29;101971.31;;;5.44;43.04
77869;BME280;67231;59.144;37.934;2023-04-16T04:32:56;101967.69;;;5.84;42.44
77869;BME280;67231;59.144;37.934;2023-04-16T04:35:22;101969.91;;;6.65;40.95
77869;BME280;67231;59.144;37.934;2023-04-16T04:37:49;101954.31;;;8.37;37.75
77869;BME280;67231;59.144;37.934;2023-04-16T04:40:18;101953.84;;;9.62;35.84
77869;BME280;67231;59.144;37.934;2023-04-16T04:42:46;101957.09;;;10.34;35.03
77869;BME280;67231;59.144;37.934;2023-04-16T04:45:12;101960.13;;;10.55;33.29
77869;BME280;67231;59.144;37.934;2023-04-16T04:47:40;101958.47;;;10.00;32.85
77869;BME280;67231;59.144;37.934;2023-04-16T04:50:07;101952.06;;;9.34;33.00
77869;BME280;67231;59.144;37.934;2023-04-16T04:52:34;101954.56;;;8.93;32.56
77869;BME280;67231;59.144;37.934;2023-04-16T04:55:02;101961.44;;;8.67;32.82
77869;BME280;67231;59.144;37.934;2023-04-16T04:57:30;101957.84;;;8.68;32.17
77869;BME280;67231;59.144;37.934;2023-04-16T04:59:56;101954.78;;;8.60;32.32
77869;BME280;67231;59.144;37.934;2023-04-16T05:02:23;101959.50;;;8.55;32.24
77869;BME280;67231;59.144;37.934;2023-04-16T05:04:49;101955.03;;;9.00;32.03
77869;BME280;67231;59.144;37.934;2023-04-16T05:07:16;101961.47;;;10.08;30.68
77869;BME280;67231;59.144;37.934;2023-04-16T05:09:42;101951.44;;;10.66;29.99
77869;BME280;67231;59.144;37.934;2023-04-16T05:12:09;101959.50;;;11.03;28.80
77869;BME280;67231;59.144;37.934;2023-04-16T05:14:35;101962.97;;;11.66;29.09
77869;BME280;67231;59.144;37.934;2023-04-16T05:17:02;101955.50;;;12.91;27.32
77869;BME280;67231;59.144;37.934;2023-04-16T05:19:28;101956.66;;;14.84;25.75
77869;BME280;67231;59.144;37.934;2023-04-16T05:21:54;101962.47;;;15.71;24.95
77869;BME280;67231;59.144;37.934;2023-04-16T05:24:21;101953.78;;;16.17;24.55
77869;BME280;67231;59.144;37.934;2023-04-16T05:26:47;101954.00;;;16.73;23.89
77869;BME280;67231;59.144;37.934;2023-04-16T05:29:14;101953.69;;;16.96;22.68
77869;BME280;67231;59.144;37.934;2023-04-16T05:31:40;101956.44;;;16.56;21.99
77869;BME280;67231;59.144;37.934;2023-04-16T05:34:07;101958.31;;;15.97;22.75
77869;BME280;67231;59.144;37.934;2023-04-16T05:36:33;101953.41;;;15.52;22.88
77869;BME280;67231;59.144;37.934;2023-04-16T05:39:00;101950.06;;;14.88;22.91
77869;BME280;67231;59.144;37.934;2023-04-16T05:41:26;101946.78;;;14.21;23.31
77869;BME280;67231;59.144;37.934;2023-04-16T05:43:52;101954.50;;;14.03;23.42
77869;BME280;67231;59.144;37.934;2023-04-16T05:46:19;101959.94;;;13.81;23.58
77869;BME280;67231;59.144;37.934;2023-04-16T05:48:45;101955.50;;;13.47;23.99
77869;BME280;67231;59.144;37.934;2023-04-16T05:51:12;101956.44;;;13.24;23.98
77869;BME280;67231;59.144;37.934;2023-04-16T05:53:38;101960.38;;;13.42;23.64
77869;BME280;67231;59.144;37.934;2023-04-16T05:56:06;101953.44;;;13.28;23.66
77869;BME280;67231;59.144;37.934;2023-04-16T05:58:33;101950.53;;;13.20;23.03
77869;BME280;67231;59.144;37.934;2023-04-16T06:00:59;101942.16;;;13.02;23.47
77869;BME280;67231;59.144;37.934;2023-04-16T06:03:26;101958.38;;;12.77;23.45
77869;BME280;67231;59.144;37.934;2023-04-16T06:05:53;101952.22;;;12.41;24.03
77869;BME280;67231;59.144;37.934;2023-04-16T06:08:19;101952.59;;;12.36;23.39
77869;BME280;67231;59.144;37.934;2023-04-16T06:10:46;101956.81;;;12.38;23.14
77869;BME280;67231;59.144;37.934;2023-04-16T06:13:14;101953.75;;;12.67;22.63
77869;BME280;67231;59.144;37.934;2023-04-16T06:15:41;101945.31;;;13.07;22.27
77869;BME280;67231;59.144;37.934;2023-04-16T06:18:07;101948.69;;;13.32;21.79
77869;BME280;67231;59.144;37.934;2023-04-16T06:20:34;101951.47;;;13.76;21.44
77869;BME280;67231;59.144;37.934;2023-04-16T06:23:00;101956.22;;;14.05;21.66
77869;BME280;67231;59.144;37.934;2023-04-16T06:25:27;101951.38;;;14.31;21.24
77869;BME280;67231;59.144;37.934;2023-04-16T06:27:53;101943.81;;;14.36;20.93
77869;BME280;67231;59.144;37.934;2023-04-16T06:30:20;101937.75;;;14.13;21.14
77869;BME280;67231;59.144;37.934;2023-04-16T06:32:46;101945.88;;;13.79;21.27
77869;BME280;67231;59.144;37.934;2023-04-16T06:35:13;101934.38;;;13.56;20.98
77869;BME280;67231;59.144;37.934;2023-04-16T06:37:39;101932.47;;;13.46;21.41
77869;BME280;67231;59.144;37.934;2023-04-16T06:40:06;101928.59;;;13.39;21.10
77869;BME280;67231;59.144;37.934;2023-04-16T06:42:33;101930.91;;;13.21;21.90
77869;BME280;67231;59.144;37.934;2023-04-16T06:45:00;101932.59;;;13.00;21.43
77869;BME280;67231;59.144;37.934;2023-04-16T06:47:26;101923.50;;;13.14;21.29
77869;BME280;67231;59.144;37.934;2023-04-16T06:49:53;101928.38;;;13.42;21.23
77869;BME280;67231;59.144;37.934;2023-04-16T06:52:19;101933.69;;;13.54;21.07
77869;BME280;67231;59.144;37.934;2023-04-16T06:54:47;101924.91;;;13.74;20.42
77869;BME280;67231;59.144;37.934;2023-04-16T06:57:13;101925.47;;;14.10;20.37
77869;BME280;67231;59.144;37.934;2023-04-16T06:59:41;101923.06;;;14.49;19.91
77869;BME280;67231;59.144;37.934;2023-04-16T07:02:09;101926.22;;;14.54;20.09
77869;BME280;67231;59.144;37.934;2023-04-16T07:04:35;101919.31;;;14.52;20.37
77869;BME280;67231;59.144;37.934;2023-04-16T07:07:02;101919.56;;;14.28;20.26
77869;BME280;67231;59.144;37.934;2023-04-16T07:09:28;101917.63;;;14.30;20.54
77869;BME280;67231;59.144;37.934;2023-04-16T07:11:55;101923.88;;;14.40;20.36
77869;BME280;67231;59.144;37.934;2023-04-16T07:14:21;101911.25;;;14.63;20.27
77869;BME280;67231;59.144;37.934;2023-04-16T07:16:48;101922.25;;;14.70;20.43
77869;BME280;67231;59.144;37.934;2023-04-16T07:19:14;101917.91;;;14.69;20.04
77869;BME280;67231;59.144;37.934;2023-04-16T07:21:41;101915.22;;;15.00;19.62
77869;BME280;67231;59.144;37.934;2023-04-16T07:24:09;101914.38;;;15.40;18.95
77869;BME280;67231;59.144;37.934;2023-04-16T07:26:37;101920.03;;;15.46;18.68
77869;BME280;67231;59.144;37.934;2023-04-16T07:29:03;101922.66;;;15.27;18.97
77869;BME280;67231;59.144;37.934;2023-04-16T07:31:29;101918.22;;;15.06;18.97
77869;BME280;67231;59.144;37.934;2023-04-16T07:33:57;101923.88;;;14.82;18.83
77869;BME280;67231;59.144;37.934;2023-04-16T07:36:24;101923.75;;;14.84;19.22
77869;BME280;67231;59.144;37.934;2023-04-16T07:38:52;101918.69;;;14.90;19.64
77869;BME280;67231;59.144;37.934;2023-04-16T07:41:18;101922.31;;;14.80;19.68
77869;BME280;67231;59.144;37.934;2023-04-16T07:43:45;101911.16;;;14.74;19.49
77869;BME280;67231;59.144;37.934;2023-04-16T07:46:12;101916.19;;;14.99;19.08
77869;BME280;67231;59.144;37.934;2023-04-16T07:48:39;101912.72;;;15.08;19.19
77869;BME280;67231;59.144;37.934;2023-04-16T07:51:05;101907.97;;;15.21;19.37
77869;BME280;67231;59.144;37.934;2023-04-16T07:53:32;101915.63;;;15.36;18.82
77869;BME280;67231;59.144;37.934;2023-04-16T07:55:58;101912.03;;;15.76;18.67
77869;BME280;67231;59.144;37.934;2023-04-16T07:58:25;101910.38;;;16.04;18.68
77869;BME280;67231;59.144;37.934;2023-04-16T08:00:51;101908.13;;;16.09;18.64
77869;BME280;67231;59.144;37.934;2023-04-16T08:03:17;101903.31;;;16.23;18.29
77869;BME280;67231;59.144;37.934;2023-04-16T08:05:44;101902.59;;;16.30;18.33
77869;BME280;67231;59.144;37.934;2023-04-16T08:08:10;101912.16;;;16.52;17.67
77869;BME280;67231;59.144;37.934;2023-04-16T08:10:38;101901.06;;;16.37;17.11
77869;BME280;67231;59.144;37.934;2023-04-16T08:13:04;101906.72;;;16.25;17.64
77869;BME280;67231;59.144;37.934;2023-04-16T08:15:31;101903.91;;;16.26;17.55
77869;BME280;67231;59.144;37.934;2023-04-16T08:17:57;101899.34;;;16.46;17.47
77869;BME280;67231;59.144;37.934;2023-04-16T08:20:24;101895.00;;;16.83;17.09
77869;BME280;67231;59.144;37.934;2023-04-16T08:22:52;101898.09;;;16.88;17.08
77869;BME280;67231;59.144;37.934;2023-04-16T08:25:20;101906.28;;;16.86;17.21
77869;BME280;67231;59.144;37.934;2023-04-16T08:27:47;101904.03;;;16.82;16.56
77869;BME280;67231;59.144;37.934;2023-04-16T08:30:14;101894.81;;;16.56;16.86
77869;BME280;67231;59.144;37.934;2023-04-16T08:32:42;101895.84;;;16.07;16.56
77869;BME280;67231;59.144;37.934;2023-04-16T08:35:08;101883.03;;;15.81;17.20
77869;BME280;67231;59.144;37.934;2023-04-16T08:37:35;101883.88;;;15.62;17.49
77869;BME280;67231;59.144;37.934;2023-04-16T08:40:02;101887.13;;;15.15;17.76
77869;BME280;67231;59.144;37.934;2023-04-16T08:42:33;101889.44;;;14.89;18.06
77869;BME280;67231;59.144;37.934;2023-04-16T08:45:07;101875.47;;;14.54;17.84
77869;BME280;67231;59.144;37.934;2023-04-16T08:47:35;101876.50;;;14.42;17.52
77869;BME280;67231;59.144;37.934;2023-04-16T08:50:03;101874.09;;;14.39;17.94
77869;BME280;67231;59.144;37.934;2023-04-16T08:52:31;101865.47;;;14.26;17.76
77869;BME280;67231;59.144;37.934;2023-04-16T08:55:11;101871.69;;;14.36;18.11
77869;BME280;67231;59.144;37.934;2023-04-16T08:57:48;101866.81;;;14.41;18.27
77869;BME280;67231;59.144;37.934;2023-04-16T09:00:16;101866.63;;;14.33;18.11
77869;BME280;67231;59.144;37.934;2023-04-16T09:02:43;101870.66;;;14.27;18.22
77869;BME280;67231;59.144;37.934;2023-04-16T09:05:13;101871.63;;;14.05;18.37
77869;BME280;67231;59.144;37.934;2023-04-16T09:07:44;101857.84;;;14.00;18.14
77869;BME280;67231;59.144;37.934;2023-04-16T09:10:12;101865.09;;;13.98;18.53
77869;BME280;67231;59.144;37.934;2023-04-16T09:12:40;101858.69;;;14.00;18.30
77869;BME280;67231;59.144;37.934;2023-04-16T09:15:09;101851.25;;;14.04;18.52
77869;BME280;67231;59.144;37.934;2023-04-16T09:17:36;101852.69;;;14.08;18.49
77869;BME280;67231;59.144;37.934;2023-04-16T09:20:05;101853.22;;;14.02;18.49
77869;BME280;67231;59.144;37.934;2023-04-16T09:22:34;101845.66;;;13.86;18.38
77869;BME280;67231;59.144;37.934;2023-04-16T09:25:01;101847.75;;;14.03;18.88
77869;BME280;67231;59.144;37.934;2023-04-16T09:27:30;101848.78;;;14.12;19.17
77869;BME280;67231;59.144;37.934;2023-04-16T09:29:57;101846.78;;;14.05;19.03
77869;BME280;67231;59.144;37.934;2023-04-16T09:32:27;101838.34;;;14.09;18.60
77869;BME280;67231;59.144;37.934;2023-04-16T09:34:56;101843.03;;;14.17;18.74
77869;BME280;67231;59.144;37.934;2023-04-16T09:37:28;101847.88;;;14.02;18.62
77869;BME280;67231;59.144;37.934;2023-04-16T09:39:57;101847.41;;;13.97;18.68
77869;BME280;67231;59.144;37.934;2023-04-16T09:42:26;101855.16;;;14.00;19.21
77869;BME280;67231;59.144;37.934;2023-04-16T09:44:53;101842.84;;;13.88;19.28
77869;BME280;67231;59.144;37.934;2023-04-16T09:47:20;101844.81;;;13.86;18.97
77869;BME280;67231;59.144;37.934;2023-04-16T09:49:47;101841.94;;;13.77;18.69
77869;BME280;67231;59.144;37.934;2023-04-16T09:52:17;101842.41;;;13.82;18.80
77869;BME280;67231;59.144;37.934;2023-04-16T09:54:48;101840.06;;;13.89;18.75
77869;BME280;67231;59.144;37.934;2023-04-16T09:57:22;101840.13;;;13.99;18.61
77869;BME280;67231;59.144;37.934;2023-04-16T10:00:17;101836.69;;;13.87;18.80
77869;BME280;67231;59.144;37.934;2023-04-16T10:02:43;101832.81;;;13.80;18.78
77869;BME280;67231;59.144;37.934;2023-04-16T10:05:13;101838.53;;;13.75;18.69
77869;BME280;67231;59.144;37.934;2023-04-16T10:07:41;101838.69;;;13.95;18.68
77869;BME280;67231;59.144;37.934;2023-04-16T10:10:08;101829.81;;;14.15;18.52
77869;BME280;67231;59.144;37.934;2023-04-16T10:12:35;101832.56;;;14.04;19.01
77869;BME280;67231;59.144;37.934;2023-04-16T10:15:02;101842.13;;;13.86;18.97
77869;BME280;67231;59.144;37.934;2023-04-16T10:17:31;101842.19;;;13.74;18.98
77869;BME280;67231;59.144;37.934;2023-04-16T10:19:59;101837.38;;;13.68;19.39
77869;BME280;67231;59.144;37.934;2023-04-16T10:22:27;101834.28;;;13.52;19.01
77869;BME280;67231;59.144;37.934;2023-04-16T10:24:54;101832.63;;;13.39;18.81
77869;BME280;67231;59.144;37.934;2023-04-16T10:27:21;101829.91;;;13.51;18.94
77869;BME280;67231;59.144;37.934;2023-04-16T10:29:47;101825.06;;;13.44;18.96
77869;BME280;67231;59.144;37.934;2023-04-16T10:32:16;101818.81;;;13.34;19.17
77869;BME280;67231;59.144;37.934;2023-04-16T10:34:44;101816.63;;;13.28;19.17
77869;BME280;67231;59.144;37.934;2023-04-16T10:37:11;101816.16;;;13.23;19.13
77869;BME280;67231;59.144;37.934;2023-04-16T10:39:38;101812.41;;;13.14;19.17
77869;BME280;67231;59.144;37.934;2023-04-16T10:42:09;101813.28;;;13.15;19.26
77869;BME280;67231;59.144;37.934;2023-04-16T10:44:37;101813.75;;;13.20;19.41
77869;BME280;67231;59.144;37.934;2023-04-16T10:47:12;101809.50;;;13.17;19.25
77869;BME280;67231;59.144;37.934;2023-04-16T10:49:40;101815.16;;;13.24;19.10
77869;BME280;67231;59.144;37.934;2023-04-16T10:52:14;101798.94;;;13.16;19.53
77869;BME280;67231;59.144;37.934;2023-04-16T10:54:45;101792.44;;;13.08;19.49
77869;BME280;67231;59.144;37.934;2023-04-16T10:57:18;101798.72;;;13.07;19.27
77869;BME280;67231;59.144;37.934;2023-04-16T10:59:45;101794.59;;;13.03;19.65
77869;BME280;67231;59.144;37.934;2023-04-16T11:02:19;101798.25;;;13.02;19.20
77869;BME280;67231;59.144;37.934;2023-04-16T11:04:47;101791.56;;;13.08;19.20
77869;BME280;67231;59.144;37.934;2023-04-16T11:07:17;101803.53;;;13.25;19.70
77869;BME280;67231;59.144;37.934;2023-04-16T11:10:05;101804.38;;;13.25;19.60
77869;BME280;67231;59.144;37.934;2023-04-16T11:12:40;101802.22;;;13.08;19.10
77869;BME280;67231;59.144;37.934;2023-04-16T11:15:12;101796.31;;;13.04;19.23
77869;BME280;67231;59.144;37.934;2023-04-16T11:20:24;101783.81;;;13.16;20.08
77869;BME280;67231;59.144;37.934;2023-04-16T11:22:56;101781.97;;;13.28;19.73
77869;BME280;67231;59.144;37.934;2023-04-16T11:25:30;101779.66;;;13.23;19.74
77869;BME280;67231;59.144;37.934;2023-04-16T11:27:57;101788.72;;;13.32;19.93
77869;BME280;67231;59.144;37.934;2023-04-16T11:30:31;101800.38;;;13.31;19.31
77869;BME280;67231;59.144;37.934;2023-04-16T11:33:06;101779.28;;;12.96;19.57
77869;BME280;67231;59.144;37.934;2023-04-16T11:35:33;101773.59;;;12.78;19.73
77869;BME280;67231;59.144;37.934;2023-04-16T11:38:00;101771.91;;;12.77;18.94
77869;BME280;67231;59.144;37.934;2023-04-16T11:40:30;101768.38;;;12.65;19.34
77869;BME280;67231;59.144;37.934;2023-04-16T11:43:23;101757.16;;;12.50;19.06
77869;BME280;67231;59.144;37.934;2023-04-16T11:48:24;101756.56;;;12.35;18.93
77869;BME280;67231;59.144;37.934;2023-04-16T11:50:57;101754.00;;;12.45;18.51
77869;BME280;67231;59.144;37.934;2023-04-16T11:53:24;101755.47;;;12.49;18.90
77869;BME280;67231;59.144;37.934;2023-04-16T11:55:50;101761.16;;;12.67;18.11
77869;BME280;67231;59.144;37.934;2023-04-16T11:58:17;101758.84;;;12.51;18.54
77869;BME280;67231;59.144;37.934;2023-04-16T12:00:45;101753.41;;;12.52;18.32
77869;BME280;67231;59.144;37.934;2023-04-16T12:03:11;101747.59;;;12.59;18.77
77869;BME280;67231;59.144;37.934;2023-04-16T12:05:38;101744.72;;;12.50;18.22
77869;BME280;67231;59.144;37.934;2023-04-16T12:08:07;101739.00;;;12.44;18.18
77869;BME280;67231;59.144;37.934;2023-04-16T12:10:36;101726.16;;;12.37;18.41
77869;BME280;67231;59.144;37.934;2023-04-16T12:13:13;101729.81;;;12.48;18.62
77869;BME280;67231;59.144;37.934;2023-04-16T12:18:11;101717.34;;;12.48;19.02
77869;BME280;67231;59.144;37.934;2023-04-16T12:20:42;101717.59;;;12.34;18.92
77869;BME280;67231;59.144;37.934;2023-04-16T12:23:09;101717.22;;;12.38;19.22
77869;BME280;67231;59.144;37.934;2023-04-16T12:25:36;101706.34;;;12.42;19.37
77869;BME280;67231;59.144;37.934;2023-04-16T12:28:03;101719.16;;;12.48;18.95
77869;BME280;67231;59.144;37.934;2023-04-16T12:30:29;101706.81;;;12.47;19.15
77869;BME280;67231;59.144;37.934;2023-04-16T12:33:16;101707.28;;;12.52;18.81
77869;BME280;67231;59.144;37.934;2023-04-16T12:35:43;101706.31;;;12.53;19.17
77869;BME280;67231;59.144;37.934;2023-04-16T12:38:10;101696.91;;;12.49;19.11
77869;BME280;67231;59.144;37.934;2023-04-16T12:40:37;101705.13;;;12.46;18.35
77869;BME280;67231;59.144;37.934;2023-04-16T12:43:04;101698.09;;;12.45;18.95
77869;BME280;67231;59.144;37.934;2023-04-16T12:45:31;101696.66;;;12.41;18.92
77869;BME280;67231;59.144;37.934;2023-04-16T12:47:58;101684.81;;;12.33;18.94
77869;BME280;67231;59.144;37.934;2023-04-16T12:50:24;101690.00;;;12.35;18.78
77869;BME280;67231;59.144;37.934;2023-04-16T12:52:51;101677.56;;;12.24;18.97